Meteo Giornale » Osservazioni meteo Stati Uniti (USA) » Beale-Marysvile
ore: 01:55 - Osservazioni Meteo Beale-Marysvile
Lat. 39° 8' N Lon. 121° 26' W Alt. 34 metri s.l.m.
16 °C
Nuvoloso
Temp. 24 Ore
14 °C
28 °C
Sud-Est
25.9 Km/h
Dew point 11 °C
Umidità 72 %
Visibilità 10 Km
Il sole sorge alle ore 06:34
Il sole tramonta alle ore 19:36
| Data e Ora | Cielo e Fenomeni | T °C | DP °C | Um. % | Pres. hPa | Vis. km | Vento km/h | |
|---|---|---|---|---|---|---|---|---|
| Oggi h: 01:55 | Nuvoloso | 16 | 11 | 72 | 1011 | 10 | SE 25.9 | |
| Oggi h: 00:55 | Nuvoloso | 17 | 11 | 67 | 1011 | 10 | SE 25.9 | |
| Ieri h: 23:55 | Nuvoloso | 17 | 12 | 72 | 1011 | 10 | SE 27.8 | |
| Ieri h: 22:55 | Nuvoloso | 18 | 12 | 67 | 1011 | 10 | SE 31.5 | |
| Ieri h: 21:55 | Nuvoloso | 18 | 11 | 63 | 1010 | 10 | S/SE 20.3 | |
| Ieri h: 20:55 | Poco Nuvoloso | 20 | 12 | 59 | 1010 | 10 | S/SE 22.2 | |
| Ieri h: 19:55 | Poco Nuvoloso | 21 | 11 | 52 | 1009 | 10 | S 16.7 | |
| Ieri h: 18:55 | Poco Nuvoloso | 24 | 11 | 43 | 1009 | 10 | S 16.7 | |
| Ieri h: 17:55 | Poco Nuvoloso | 26 | 11 | 39 | 1009 | 10 | S 24 | |
| Ieri h: 16:55 | Poco Nuvoloso | 27 | 10 | 34 | 1009 | 10 | S 24 | |
| Ieri h: 15:55 | Poco Nuvoloso | 28 | 10 | 32 | 1009 | 10 | S 20.3 | |
| Ieri h: 14:55 | Poco Nuvoloso | 27 | 11 | 36 | 1010 | 10 | S 18.5 | |
| Ieri h: 13:55 | Nuvoloso | 26 | 11 | 39 | 1011 | 10 | S 24 | |
| Ieri h: 12:55 | Nuvoloso | 25 | 11 | 41 | 1011 | 10 | S 20.3 | |
| Ieri h: 11:55 | Nuvoloso | 25 | 11 | 41 | 1011 | 10 | S/SO 18.5 | |
| Ieri h: 11:35 | Nuvoloso | 24 | 11 | 43 | 1011 | 10 | S 22.2 | |
| Ieri h: 10:55 | Sereno | 24 | 11 | 43 | 1011 | 10 | S 22.2 | |
| Ieri h: 09:55 | Sereno | 22 | 10 | 46 | 1011 | 10 | SE 20.3 | |
| Ieri h: 08:55 | Sereno | 21 | 11 | 52 | 1011 | 10 | S 18.5 | |
| Ieri h: 07:55 | Sereno | 18 | 10 | 59 | 1011 | 10 | SE 18.5 | |
| Ieri h: 06:55 | Sereno | 14 | 9 | 71 | 1010 | 10 | SE 9.3 | |
| Ieri h: 05:55 | Sereno | 14 | 9 | 71 | 1009 | 10 | SE 11.1 | |
| Ieri h: 04:55 | Sereno | 17 | 9 | 59 | 1009 | 10 | SE 13 | |
| Ieri h: 03:55 | Sereno | 16 | 8 | 58 | 1009 | 10 | S/SE 9.3 | |
| Ieri h: 02:55 | Sereno | 17 | 8 | 55 | 1009 | 10 | N 5.5 | |



